createdAt,value
2019-04-10T00:00:02.446Z,69.87
2019-04-10T00:02:07.094Z,69.40
2019-04-10T00:04:11.104Z,69.80
2019-04-10T00:06:17.050Z,73.10
2019-04-10T00:08:20.522Z,70.42
2019-04-10T00:10:24.412Z,71.40
2019-04-10T00:12:29.620Z,73.30
2019-04-10T00:14:34.508Z,72.62
2019-04-10T00:16:38.499Z,69.75
2019-04-10T00:18:42.643Z,72.65
2019-04-10T00:20:46.986Z,75.72
2019-04-10T00:22:51.181Z,68.22
2019-04-10T00:24:55.038Z,68.10
2019-04-10T00:26:59.184Z,74.60
2019-04-10T00:29:03.621Z,71.60
2019-04-10T00:31:07.603Z,67.17
2019-04-10T00:33:12.283Z,67.53
2019-04-10T00:35:16.143Z,69.13
2019-04-10T00:37:26.387Z,64.13
2019-04-10T00:39:26.452Z,69.73
2019-04-10T00:41:30.286Z,66.50
2019-04-10T00:43:35.064Z,65.40
2019-04-10T00:45:39.774Z,58.90
2019-04-10T00:47:43.471Z,63.23
2019-04-10T00:49:48.229Z,64.07
2019-04-10T00:51:52.053Z,65.03
2019-04-10T00:53:55.890Z,67.93
2019-04-10T00:55:59.946Z,66.43
2019-04-10T00:58:04.209Z,62.55
2019-04-10T01:00:09.137Z,66.83
2019-04-10T01:02:13.053Z,70.03
2019-04-10T01:04:16.949Z,61.23
2019-04-10T01:06:21.968Z,64.67
2019-04-10T01:08:26.505Z,65.33
2019-04-10T01:10:30.518Z,70.37
2019-04-10T01:12:34.433Z,66.17
2019-04-10T01:14:38.322Z,71.37
2019-04-10T01:16:41.863Z,69.80
2019-04-10T01:18:45.818Z,69.23
2019-04-10T01:20:50.148Z,71.83
2019-04-10T01:22:53.774Z,68.93
2019-04-10T01:24:57.821Z,68.50
2019-04-10T01:27:01.970Z,68.70
2019-04-10T01:29:06.104Z,71.10
2019-04-10T01:31:10.824Z,69.40
2019-04-10T01:33:14.533Z,69.83
2019-04-10T01:35:18.423Z,69.17
2019-04-10T01:37:22.951Z,70.33
2019-04-10T01:39:28.615Z,72.90
2019-04-10T01:41:32.879Z,72.50
2019-04-10T01:43:37.187Z,72.87
2019-04-10T01:45:41.808Z,72.15
2019-04-10T01:47:46.052Z,73.35
2019-04-10T01:49:50.347Z,69.87
2019-04-10T01:51:55.311Z,73.40
2019-04-10T01:54:00.546Z,74.25
2019-04-10T01:56:05.271Z,76.60
2019-04-10T01:58:13.812Z,72.53
2019-04-10T02:00:25.761Z,71.60
2019-04-10T02:02:39.076Z,71.10
2019-04-10T02:04:43.860Z,69.77
2019-04-10T02:06:48.011Z,70.97
2019-04-10T02:08:52.230Z,71.45
2019-04-10T02:10:56.597Z,70.65
2019-04-10T02:13:01.190Z,70.37
2019-04-10T02:15:07.997Z,69.17
2019-04-10T02:17:12.650Z,71.35
2019-04-10T02:19:16.761Z,71.90
2019-04-10T02:21:20.985Z,65.97
2019-04-10T02:23:26.016Z,68.77
2019-04-10T02:25:30.635Z,69.65
2019-04-10T02:27:34.543Z,68.27
2019-04-10T02:29:39.563Z,70.72
2019-04-10T02:31:44.225Z,72.60
2019-04-10T02:33:49.663Z,74.97
2019-04-10T02:35:54.851Z,70.62
2019-04-10T02:38:18.558Z,69.15
2019-04-10T02:40:09.075Z,70.97
2019-04-10T02:42:14.266Z,71.82
2019-04-10T02:44:18.754Z,68.72
2019-04-10T02:46:23.109Z,73.50
2019-04-10T02:48:27.593Z,73.55
2019-04-10T02:50:31.461Z,67.67
2019-04-10T02:52:38.311Z,66.67
2019-04-10T02:54:41.895Z,69.97
2019-04-10T02:56:47.697Z,70.32
2019-04-10T02:58:51.718Z,65.62
2019-04-10T03:00:56.341Z,69.27
2019-04-10T03:03:01.386Z,64.97
2019-04-10T03:05:07.130Z,68.83
2019-04-10T03:07:11.781Z,78.47
2019-04-10T03:09:32.191Z,70.05
2019-04-10T03:11:24.348Z,64.22
2019-04-10T03:13:30.816Z,73.20
2019-04-10T03:15:35.946Z,69.90
2019-04-10T03:17:42.100Z,69.67
2019-04-10T03:19:47.491Z,66.30
2019-04-10T03:21:51.461Z,61.08
2019-04-10T03:23:55.986Z,62.70
2019-04-10T03:26:00.136Z,77.37
2019-04-10T03:28:05.066Z,81.80
2019-04-10T03:30:12.131Z,67.83
2019-04-10T03:32:36.553Z,72.70
2019-04-10T03:34:42.718Z,66.72
2019-04-10T03:36:45.647Z,64.10
2019-04-10T03:38:58.590Z,64.92
2019-04-10T03:40:55.560Z,63.28
2019-04-10T03:42:59.747Z,63.05
2019-04-10T03:45:03.759Z,61.37
2019-04-10T03:47:09.103Z,64.22
2019-04-10T03:49:13.670Z,65.60
2019-04-10T03:51:18.567Z,64.03
2019-04-10T03:53:23.257Z,79.53
2019-04-10T03:55:29.252Z,71.92
2019-04-10T03:57:33.123Z,64.53
2019-04-10T03:59:38.946Z,61.27
2019-04-10T04:01:43.036Z,60.27
2019-04-10T04:03:47.135Z,60.73
2019-04-10T04:05:51.313Z,61.23
2019-04-10T04:07:55.042Z,60.40
2019-04-10T04:09:59.989Z,58.67
2019-04-10T04:12:04.475Z,58.02
2019-04-10T04:14:08.285Z,57.00
2019-04-10T04:16:12.915Z,56.83
2019-04-10T04:18:17.206Z,57.47
2019-04-10T04:20:21.404Z,58.02
2019-04-10T04:22:25.251Z,56.58
2019-04-10T04:24:29.425Z,58.78
2019-04-10T04:26:33.637Z,57.13
2019-04-10T04:28:38.059Z,61.80
2019-04-10T04:30:42.055Z,61.20
2019-04-10T04:32:46.228Z,59.42
2019-04-10T04:34:50.004Z,59.63
2019-04-10T04:36:54.189Z,58.68
2019-04-10T04:38:58.097Z,64.87
2019-04-10T04:41:02.481Z,58.80
2019-04-10T04:43:06.625Z,59.45
2019-04-10T04:45:10.931Z,59.60
2019-04-10T04:47:15.690Z,59.23
2019-04-10T04:49:20.663Z,58.55
2019-04-10T04:51:27.289Z,65.12
2019-04-10T04:53:32.236Z,58.02
2019-04-10T04:55:38.147Z,55.70
2019-04-10T04:57:42.335Z,54.57
2019-04-10T04:59:46.567Z,53.83
2019-04-10T05:01:50.368Z,53.77
2019-04-10T05:03:54.844Z,53.07
2019-04-10T05:05:58.694Z,54.23
2019-04-10T05:08:05.129Z,52.90
2019-04-10T05:10:09.510Z,52.67
2019-04-10T05:12:13.407Z,53.70
2019-04-10T05:14:17.518Z,61.60
2019-04-10T05:16:22.514Z,54.33
2019-04-10T05:18:27.479Z,54.83
2019-04-10T05:20:42.224Z,53.60
2019-04-10T05:22:36.713Z,51.67
2019-04-10T05:24:40.560Z,51.13
2019-04-10T05:26:44.884Z,50.25
2019-04-10T05:28:49.339Z,49.97
2019-04-10T05:30:52.885Z,52.07
2019-04-10T05:32:57.705Z,48.23
2019-04-10T05:35:04.321Z,46.85
2019-04-10T05:37:07.427Z,50.38
2019-04-10T05:39:11.315Z,49.10
2019-04-10T05:41:15.542Z,50.70
2019-04-10T05:43:19.987Z,48.40
2019-04-10T05:45:24.159Z,48.15
2019-04-10T05:47:28.314Z,48.67
2019-04-10T05:49:33.147Z,56.42
2019-04-10T05:51:37.493Z,69.05
2019-04-10T05:53:41.318Z,48.80
2019-04-10T05:55:45.521Z,47.40
2019-04-10T05:57:49.643Z,47.80
2019-04-10T05:59:54.392Z,46.83
2019-04-10T06:01:58.952Z,45.78
2019-04-10T06:04:03.134Z,46.83
2019-04-10T06:06:08.383Z,45.65
2019-04-10T06:08:12.550Z,49.25
2019-04-10T06:10:17.540Z,48.42
2019-04-10T06:12:22.348Z,45.10
2019-04-10T06:14:26.605Z,45.63
2019-04-10T06:16:30.467Z,46.05
2019-04-10T06:18:35.254Z,44.17
2019-04-10T06:20:39.694Z,45.17
2019-04-10T06:22:45.389Z,48.15
2019-04-10T06:24:49.624Z,47.35
2019-04-10T06:26:54.093Z,43.23
2019-04-10T06:28:58.981Z,44.13
2019-04-10T06:31:04.102Z,43.98
2019-04-10T06:33:08.071Z,46.45
2019-04-10T06:35:13.562Z,44.05
2019-04-10T06:37:17.783Z,41.40
2019-04-10T06:39:22.087Z,59.67
2019-04-10T06:41:26.406Z,43.40
2019-04-10T06:43:30.911Z,40.75
2019-04-10T06:45:35.767Z,41.37
2019-04-10T06:47:39.563Z,48.78
2019-04-10T06:49:45.672Z,40.08
2019-04-10T06:51:49.426Z,42.40
2019-04-10T06:54:00.954Z,42.55
2019-04-10T06:55:59.261Z,40.38
2019-04-10T06:58:03.411Z,40.35
2019-04-10T07:00:13.706Z,38.28
2019-04-10T07:02:24.637Z,39.35
2019-04-10T07:04:24.452Z,41.05
2019-04-10T07:06:45.186Z,38.50
2019-04-10T07:08:34.011Z,38.98
2019-04-10T07:10:48.355Z,37.98
2019-04-10T07:12:44.015Z,38.73
2019-04-10T07:14:50.694Z,35.63
2019-04-10T07:16:54.905Z,38.73
2019-04-10T07:19:03.128Z,35.70
2019-04-10T07:21:04.391Z,36.73
2019-04-10T07:23:08.571Z,40.43
2019-04-10T07:25:14.242Z,35.67
2019-04-10T07:27:19.434Z,39.00
2019-04-10T07:29:26.733Z,39.73
2019-04-10T07:31:32.418Z,37.83
2019-04-10T07:33:35.011Z,37.83
2019-04-10T07:35:38.806Z,37.48
2019-04-10T07:37:42.651Z,40.35
2019-04-10T07:39:46.819Z,36.83
2019-04-10T07:41:51.194Z,38.28
2019-04-10T07:43:56.905Z,38.78
2019-04-10T07:46:01.116Z,37.17
2019-04-10T07:48:06.531Z,39.55
2019-04-10T07:50:12.223Z,37.78
2019-04-10T07:52:16.867Z,39.60
2019-04-10T07:54:22.637Z,36.10
2019-04-10T07:56:28.080Z,37.78
2019-04-10T07:58:32.385Z,39.58
2019-04-10T08:00:36.728Z,40.03
2019-04-10T08:02:41.309Z,38.63
2019-04-10T08:04:45.622Z,39.45
2019-04-10T08:06:50.190Z,37.65
2019-04-10T08:08:55.404Z,38.02
2019-04-10T08:10:59.683Z,37.55
2019-04-10T08:13:04.575Z,35.73
2019-04-10T08:15:09.202Z,38.45
2019-04-10T08:17:14.320Z,38.05
2019-04-10T08:19:18.701Z,36.88
2019-04-10T08:21:22.604Z,36.53
2019-04-10T08:23:26.708Z,56.63
2019-04-10T08:25:31.117Z,53.15
2019-04-10T08:27:36.250Z,44.60
2019-04-10T08:29:40.853Z,39.70
2019-04-10T08:31:46.173Z,39.08
2019-04-10T08:33:50.527Z,38.95
2019-04-10T08:35:54.830Z,36.42
2019-04-10T08:37:59.238Z,40.20
2019-04-10T08:40:03.624Z,43.80
2019-04-10T08:42:08.384Z,53.33
2019-04-10T08:44:15.585Z,42.43
2019-04-10T08:46:19.895Z,42.73
2019-04-10T08:48:25.087Z,40.25
2019-04-10T08:50:30.243Z,39.48
2019-04-10T08:52:34.701Z,38.48
2019-04-10T08:54:38.910Z,36.90
2019-04-10T08:56:42.902Z,39.50
2019-04-10T08:58:48.230Z,48.17
2019-04-10T09:00:53.980Z,36.45
2019-04-10T09:02:58.524Z,35.98
2019-04-10T09:05:05.679Z,35.55
2019-04-10T09:07:09.808Z,38.30
2019-04-10T09:09:15.057Z,33.35
2019-04-10T09:11:26.377Z,37.17
2019-04-10T09:13:25.384Z,34.78
2019-04-10T09:15:29.967Z,35.30
2019-04-10T09:17:34.153Z,33.80
2019-04-10T09:19:38.276Z,33.85
2019-04-10T09:21:43.478Z,38.90
2019-04-10T09:23:52.780Z,38.60
2019-04-10T09:25:53.472Z,32.40
2019-04-10T09:27:57.989Z,33.33
2019-04-10T09:30:02.725Z,33.85
2019-04-10T09:32:06.934Z,34.10
2019-04-10T09:34:11.780Z,34.67
2019-04-10T09:36:17.278Z,31.87
2019-04-10T09:38:22.944Z,33.45
2019-04-10T09:40:27.948Z,33.18
2019-04-10T09:42:31.870Z,32.88
2019-04-10T09:44:35.944Z,35.73
2019-04-10T09:46:40.813Z,35.28
2019-04-10T09:48:45.048Z,34.90
2019-04-10T09:50:50.276Z,36.33
2019-04-10T09:52:54.595Z,37.42
2019-04-10T09:54:59.589Z,36.13
2019-04-10T09:57:03.724Z,40.80
2019-04-10T09:59:07.940Z,37.13
2019-04-10T10:01:15.231Z,37.23
2019-04-10T10:03:19.479Z,36.08
2019-04-10T10:05:23.361Z,35.45
2019-04-10T10:07:28.458Z,35.00
2019-04-10T10:09:32.680Z,36.88
2019-04-10T10:11:38.606Z,36.08
2019-04-10T10:13:42.856Z,35.20
2019-04-10T10:15:47.048Z,31.75
2019-04-10T10:17:50.870Z,31.45
2019-04-10T10:19:55.372Z,30.33
2019-04-10T10:22:01.834Z,31.90
2019-04-10T10:24:05.206Z,34.20
2019-04-10T10:26:09.977Z,31.48
2019-04-10T10:28:13.547Z,31.37
2019-04-10T10:30:18.083Z,30.10
2019-04-10T10:32:21.896Z,28.20
2019-04-10T10:34:26.129Z,25.23
2019-04-10T10:36:36.785Z,26.87
2019-04-10T10:38:35.338Z,26.20
2019-04-10T10:40:39.422Z,26.27
2019-04-10T10:42:43.528Z,25.10
2019-04-10T10:44:48.072Z,25.63
2019-04-10T10:46:52.106Z,23.77
2019-04-10T10:48:56.000Z,24.47
2019-04-10T10:50:59.908Z,23.33
2019-04-10T10:53:04.037Z,23.80
2019-04-10T10:55:09.733Z,23.23
2019-04-10T10:57:13.667Z,25.03
2019-04-10T10:59:17.630Z,23.73
2019-04-10T11:01:22.124Z,23.53
2019-04-10T11:03:26.507Z,21.67
2019-04-10T11:05:31.610Z,22.50
2019-04-10T11:07:35.748Z,22.40
2019-04-10T11:09:40.202Z,22.33
2019-04-10T11:14:07.832Z,20.17
2019-04-10T11:16:13.078Z,20.97
2019-04-10T11:18:18.013Z,22.23
2019-04-10T11:20:21.697Z,20.30
2019-04-10T11:22:26.191Z,20.30
2019-04-10T11:24:31.584Z,18.77
2019-04-10T11:26:36.186Z,17.73
2019-04-10T11:28:41.870Z,19.93
2019-04-10T11:30:47.295Z,18.93
2019-04-10T11:32:50.884Z,19.80
2019-04-10T11:34:55.593Z,18.03
2019-04-10T11:37:16.639Z,19.53
2019-04-10T11:39:17.107Z,20.73
2019-04-10T11:41:14.981Z,20.50
2019-04-10T11:43:19.125Z,24.20
2019-04-10T11:45:25.458Z,24.70
2019-04-10T11:47:29.198Z,23.57
2019-04-10T11:49:36.259Z,39.30
2019-04-10T11:51:39.350Z,28.03
2019-04-10T11:53:45.405Z,28.17
2019-04-10T11:55:50.998Z,31.30
2019-04-10T11:57:54.666Z,27.40
2019-04-10T12:00:02.518Z,26.77
2019-04-10T12:02:06.494Z,26.00
2019-04-10T12:04:10.940Z,26.67
2019-04-10T12:06:15.715Z,25.87
2019-04-10T12:08:46.289Z,26.93
2019-04-10T12:12:31.390Z,26.00
2019-04-10T12:14:35.474Z,27.93
2019-04-10T12:16:39.303Z,26.77
2019-04-10T12:18:43.205Z,26.03
2019-04-10T12:20:46.822Z,27.30
2019-04-10T12:22:50.373Z,23.97
2019-04-10T12:24:54.374Z,25.57
2019-04-10T12:26:58.386Z,25.80
2019-04-10T12:29:02.546Z,24.87
2019-04-10T12:31:06.601Z,24.50
2019-04-10T12:33:10.133Z,26.57
2019-04-10T12:35:13.833Z,25.80
2019-04-10T12:37:17.922Z,28.33
2019-04-10T12:39:22.574Z,24.00
2019-04-10T12:41:27.627Z,23.97
2019-04-10T12:43:32.650Z,26.00
2019-04-10T12:45:36.530Z,25.67
2019-04-10T12:47:40.055Z,24.53
2019-04-10T12:49:43.933Z,24.23
2019-04-10T12:51:47.948Z,24.83
2019-04-10T12:53:51.967Z,26.30
2019-04-10T12:55:55.851Z,25.47
2019-04-10T12:58:06.708Z,26.07
2019-04-10T13:00:08.353Z,24.60
2019-04-10T13:02:13.415Z,24.97
2019-04-10T13:04:18.075Z,25.63
2019-04-10T13:06:22.088Z,25.23
2019-04-10T13:08:35.148Z,27.83
2019-04-10T13:10:31.743Z,25.23
2019-04-10T13:12:35.589Z,34.60
2019-04-10T13:14:39.866Z,26.87
2019-04-10T13:16:44.587Z,25.70
2019-04-10T13:18:49.000Z,27.47
2019-04-10T13:20:53.511Z,31.40
2019-04-10T13:22:58.264Z,26.97
2019-04-10T13:25:01.945Z,24.40
2019-04-10T13:27:06.208Z,25.57
2019-04-10T13:29:10.218Z,27.23
2019-04-10T13:31:13.737Z,27.20
2019-04-10T13:33:17.615Z,26.70
2019-04-10T13:35:22.014Z,25.00
2019-04-10T13:37:26.285Z,25.43
2019-04-10T13:39:30.868Z,23.97
2019-04-10T13:41:36.592Z,29.07
2019-04-10T13:43:40.242Z,26.47
2019-04-10T13:45:44.125Z,25.83
2019-04-10T13:47:48.549Z,29.33
2019-04-10T13:49:52.989Z,25.80
2019-04-10T13:52:04.379Z,26.83
2019-04-10T13:56:43.695Z,24.80
2019-04-10T13:58:48.703Z,25.93
2019-04-10T14:00:53.600Z,25.23
2019-04-10T14:02:58.293Z,26.67
2019-04-10T14:05:01.881Z,27.23
2019-04-10T14:07:05.586Z,27.13
2019-04-10T14:09:30.101Z,24.60
2019-04-10T14:11:24.846Z,24.27
2019-04-10T14:13:29.616Z,24.57
2019-04-10T14:15:33.830Z,23.80
2019-04-10T14:17:37.700Z,23.03
2019-04-10T14:19:41.603Z,25.23
2019-04-10T14:21:45.510Z,23.77
2019-04-10T14:23:49.407Z,24.40
2019-04-10T14:25:55.957Z,24.37
2019-04-10T14:28:00.603Z,25.13
2019-04-10T14:30:09.135Z,24.43
2019-04-10T14:32:15.372Z,23.17
2019-04-10T14:34:20.218Z,24.67
2019-04-10T14:36:24.404Z,24.80
2019-04-10T14:38:27.879Z,25.10
2019-04-10T14:40:32.526Z,24.47
2019-04-10T14:42:36.615Z,26.13
2019-04-10T14:44:41.009Z,27.80
2019-04-10T14:46:46.352Z,24.00
2019-04-10T14:48:50.397Z,24.13
2019-04-10T14:50:54.679Z,23.77
2019-04-10T14:52:59.159Z,24.50
2019-04-10T14:55:04.042Z,23.73
2019-04-10T14:57:08.077Z,23.93
2019-04-10T14:59:12.193Z,24.40
2019-04-10T15:01:16.095Z,24.60
2019-04-10T15:03:22.489Z,23.93
2019-04-10T15:05:26.565Z,25.43
2019-04-10T15:07:31.065Z,23.43
2019-04-10T15:09:34.767Z,23.60
2019-04-10T15:11:38.784Z,23.13
2019-04-10T15:13:42.690Z,24.47
2019-04-10T15:15:46.497Z,23.17
2019-04-10T15:17:50.659Z,24.47
2019-04-10T15:19:54.608Z,22.23
2019-04-10T15:21:59.109Z,21.40
2019-04-10T15:24:03.560Z,22.10
2019-04-10T15:26:08.053Z,23.37
2019-04-10T15:28:12.183Z,23.98
2019-04-10T15:30:16.390Z,22.60
2019-04-10T15:32:20.312Z,23.07
2019-04-10T15:34:24.231Z,22.63
2019-04-10T15:36:28.421Z,23.20
2019-04-10T15:38:32.423Z,22.70
2019-04-10T15:40:36.628Z,23.47
2019-04-10T15:42:40.587Z,21.60
2019-04-10T15:44:44.546Z,21.63
2019-04-10T15:46:49.062Z,23.20
2019-04-10T15:48:52.981Z,22.80
2019-04-10T15:50:56.625Z,21.30
2019-04-10T15:53:00.482Z,21.90
2019-04-10T15:55:05.708Z,21.83
2019-04-10T15:57:10.753Z,22.07
2019-04-10T15:59:14.345Z,21.60
2019-04-10T16:01:20.205Z,21.23
2019-04-10T16:03:24.107Z,22.60
2019-04-10T16:05:29.208Z,23.03
2019-04-10T16:07:34.195Z,22.50
2019-04-10T16:09:46.409Z,23.47
2019-04-10T16:11:45.980Z,20.90
2019-04-10T16:13:52.606Z,20.87
2019-04-10T16:15:58.907Z,22.67
2019-04-10T16:18:07.290Z,22.03
2019-04-10T16:20:19.682Z,23.60
2019-04-10T16:22:27.764Z,23.77
2019-04-10T16:24:31.282Z,21.43
2019-04-10T16:26:35.708Z,24.27
2019-04-10T16:28:39.721Z,22.53
2019-04-10T16:30:43.555Z,22.37
2019-04-10T16:32:47.571Z,23.87
2019-04-10T16:34:51.219Z,21.80
2019-04-10T16:36:54.709Z,23.70
2019-04-10T16:38:58.561Z,23.83
2019-04-10T16:41:02.786Z,24.43
2019-04-10T16:43:07.875Z,23.77
2019-04-10T16:45:13.571Z,23.93
2019-04-10T16:47:17.647Z,22.37
2019-04-10T16:49:22.514Z,24.07
2019-04-10T16:51:26.596Z,27.30
2019-04-10T16:53:30.168Z,29.10
2019-04-10T16:55:34.600Z,28.27
2019-04-10T16:57:38.792Z,24.87
2019-04-10T16:59:42.424Z,25.03
2019-04-10T17:01:46.821Z,24.73
2019-04-10T17:03:50.848Z,23.73
2019-04-10T17:05:55.487Z,24.03
2019-04-10T17:07:59.582Z,22.90
2019-04-10T17:10:14.035Z,22.10
2019-04-10T17:12:11.649Z,23.00
2019-04-10T17:14:15.228Z,20.00
2019-04-10T17:16:19.797Z,25.93
2019-04-10T17:18:25.719Z,22.33
2019-04-10T17:20:30.744Z,25.90
2019-04-10T17:22:42.056Z,24.10
2019-04-10T17:24:41.610Z,23.50
2019-04-10T17:26:45.329Z,23.80
2019-04-10T17:28:50.309Z,22.00
2019-04-10T17:30:54.212Z,28.70
2019-04-10T17:32:58.107Z,26.07
2019-04-10T17:35:03.166Z,24.50
2019-04-10T17:37:07.550Z,28.20
2019-04-10T17:39:13.345Z,25.80
2019-04-10T17:41:17.698Z,22.00
2019-04-10T17:43:21.642Z,25.03
2019-04-10T17:45:27.179Z,21.30
2019-04-10T17:47:31.326Z,16.77
2019-04-10T17:49:35.850Z,14.87
2019-04-10T17:51:39.711Z,22.63
2019-04-10T17:53:45.475Z,16.83
2019-04-10T17:55:49.701Z,14.37
2019-04-10T17:57:56.097Z,14.20
2019-04-10T17:59:58.951Z,16.00
2019-04-10T18:02:07.455Z,13.83
2019-04-10T18:04:11.101Z,14.43
2019-04-10T18:06:15.250Z,17.03
2019-04-10T18:08:18.984Z,21.27
2019-04-10T18:10:22.866Z,14.20
2019-04-10T18:12:26.394Z,13.33
2019-04-10T18:14:31.215Z,15.60
2019-04-10T18:16:36.174Z,17.57
2019-04-10T18:18:40.201Z,27.33
2019-04-10T18:20:44.411Z,21.87
2019-04-10T18:22:48.976Z,28.13
2019-04-10T18:24:53.746Z,22.83
2019-04-10T18:26:58.497Z,28.87
2019-04-10T18:29:05.813Z,26.43
2019-04-10T18:31:10.384Z,17.77
2019-04-10T18:33:14.505Z,16.87
2019-04-10T18:35:18.450Z,16.07
2019-04-10T18:37:25.121Z,19.40
2019-04-10T18:39:27.577Z,16.33
2019-04-10T18:41:31.861Z,16.27
2019-04-10T18:43:36.135Z,19.17
2019-04-10T18:45:42.023Z,35.93
2019-04-10T18:47:46.101Z,26.80
2019-04-10T18:49:49.963Z,16.87
2019-04-10T18:51:54.280Z,20.67
2019-04-10T18:53:58.178Z,36.00
2019-04-10T18:56:03.004Z,22.83
2019-04-10T18:58:09.617Z,16.07
2019-04-10T19:00:32.359Z,14.93
2019-04-10T19:02:44.000Z,18.57
2019-04-10T19:04:52.926Z,19.27
2019-04-10T19:06:58.796Z,20.50
2019-04-10T19:09:11.170Z,28.13
2019-04-10T19:11:19.990Z,18.77
2019-04-10T19:13:14.998Z,26.03
2019-04-10T19:15:18.906Z,18.07
2019-04-10T19:17:22.796Z,17.33
2019-04-10T19:19:28.108Z,15.38
2019-04-10T19:21:31.734Z,15.17
2019-04-10T19:23:35.548Z,33.83
2019-04-10T19:25:39.459Z,19.60
2019-04-10T19:27:44.453Z,22.63
2019-04-10T19:29:48.757Z,19.50
2019-04-10T19:31:54.287Z,16.55
2019-04-10T19:33:59.025Z,15.97
2019-04-10T19:36:03.669Z,26.55
2019-04-10T19:38:09.249Z,16.30
2019-04-10T19:40:13.920Z,15.15
2019-04-10T19:42:18.070Z,15.83
2019-04-10T19:44:23.102Z,14.60
2019-04-10T19:46:27.414Z,15.38
2019-04-10T19:48:31.643Z,15.63
2019-04-10T19:50:35.487Z,19.13
2019-04-10T19:52:40.314Z,14.95
2019-04-10T19:54:44.197Z,18.42
2019-04-10T19:56:48.864Z,14.85
2019-04-10T19:58:56.539Z,15.78
2019-04-10T20:01:01.121Z,19.50
2019-04-10T20:03:05.730Z,15.70
2019-04-10T20:05:09.811Z,15.63
2019-04-10T20:07:13.960Z,17.23
2019-04-10T20:09:18.516Z,16.20
2019-04-10T20:11:31.888Z,19.55
2019-04-10T20:13:28.648Z,14.33
2019-04-10T20:15:32.540Z,15.13
2019-04-10T20:17:37.814Z,15.20
2019-04-10T20:19:42.557Z,17.85
2019-04-10T20:21:46.382Z,15.10
2019-04-10T20:23:50.529Z,16.20
2019-04-10T20:25:54.835Z,15.48
2019-04-10T20:27:59.043Z,15.70
2019-04-10T20:30:03.726Z,15.80
2019-04-10T20:32:08.073Z,16.55
2019-04-10T20:34:12.186Z,14.55
2019-04-10T20:36:17.153Z,13.53
2019-04-10T20:38:21.343Z,15.00
2019-04-10T20:40:25.646Z,15.15
2019-04-10T20:42:29.981Z,15.35
2019-04-10T20:44:34.506Z,14.87
2019-04-10T20:46:38.672Z,15.00
2019-04-10T20:48:42.563Z,15.55
2019-04-10T20:50:46.718Z,16.90
2019-04-10T20:52:51.555Z,14.70
2019-04-10T20:54:55.755Z,15.38
2019-04-10T20:56:59.605Z,14.07
2019-04-10T20:59:03.575Z,14.70
2019-04-10T21:01:08.335Z,14.98
2019-04-10T21:03:13.512Z,14.35
2019-04-10T21:05:18.073Z,14.45
2019-04-10T21:07:23.345Z,15.70
2019-04-10T21:09:27.792Z,14.65
2019-04-10T21:11:32.026Z,15.70
2019-04-10T21:13:36.298Z,15.98
2019-04-10T21:15:40.161Z,13.62
2019-04-10T21:17:44.421Z,15.10
2019-04-10T21:19:49.456Z,13.93
2019-04-10T21:21:53.585Z,14.38
2019-04-10T21:23:57.699Z,14.15
2019-04-10T21:26:01.927Z,15.58
2019-04-10T21:28:06.144Z,14.47
2019-04-10T21:30:24.588Z,14.85
2019-04-10T21:32:35.945Z,13.90
2019-04-10T21:34:41.190Z,12.73
2019-04-10T21:36:45.584Z,13.28
2019-04-10T21:38:50.670Z,12.78
2019-04-10T21:40:55.285Z,13.93
2019-04-10T21:42:59.460Z,14.18
2019-04-10T21:45:03.897Z,14.45
2019-04-10T21:47:11.081Z,12.68
2019-04-10T21:49:13.644Z,13.72
2019-04-10T21:51:18.946Z,12.70
2019-04-10T21:53:24.047Z,12.45
2019-04-10T21:55:29.041Z,12.70
2019-04-10T21:57:34.167Z,12.47
2019-04-10T21:59:38.904Z,11.85
2019-04-10T22:01:43.422Z,12.63
2019-04-10T22:03:47.819Z,12.25
2019-04-10T22:05:53.591Z,12.45
2019-04-10T22:07:59.150Z,12.63
2019-04-10T22:10:15.460Z,12.45
2019-04-10T22:12:28.592Z,11.88
2019-04-10T22:14:28.206Z,12.35
2019-04-10T22:16:33.617Z,12.68
2019-04-10T22:18:37.814Z,11.60
2019-04-10T22:20:41.732Z,12.10
2019-04-10T22:22:46.891Z,12.85
2019-04-10T22:24:51.284Z,11.68
2019-04-10T22:26:55.337Z,11.95
2019-04-10T22:28:59.585Z,12.70
2019-04-10T22:31:03.811Z,12.53
2019-04-10T22:33:07.772Z,12.05
2019-04-10T22:35:11.766Z,12.35
2019-04-10T22:37:16.963Z,12.60
2019-04-10T22:39:21.171Z,13.22
2019-04-10T22:41:30.689Z,12.88
2019-04-10T22:43:30.827Z,13.10
2019-04-10T22:45:36.011Z,12.58
2019-04-10T22:47:39.943Z,12.78
2019-04-10T22:49:45.040Z,13.05
2019-04-10T22:51:49.654Z,12.15
2019-04-10T22:53:53.566Z,13.35
2019-04-10T22:55:58.446Z,12.58
2019-04-10T22:58:02.726Z,12.98
2019-04-10T23:00:07.699Z,12.35
2019-04-10T23:02:14.492Z,12.18
2019-04-10T23:04:17.857Z,13.53
2019-04-10T23:06:23.013Z,12.53
2019-04-10T23:08:27.375Z,12.15
2019-04-10T23:10:31.527Z,13.10
2019-04-10T23:12:35.735Z,13.00
2019-04-10T23:14:39.845Z,11.90
2019-04-10T23:16:44.284Z,12.10
2019-04-10T23:18:48.176Z,13.58
2019-04-10T23:20:52.381Z,13.05
2019-04-10T23:22:56.777Z,13.45
2019-04-10T23:25:01.564Z,14.28
2019-04-10T23:27:06.765Z,14.00
2019-04-10T23:29:11.764Z,14.03
2019-04-10T23:31:15.899Z,14.40
2019-04-10T23:33:19.775Z,14.43
2019-04-10T23:35:23.582Z,12.73
2019-04-10T23:37:28.849Z,13.78
2019-04-10T23:39:32.811Z,15.20
2019-04-10T23:41:37.906Z,12.93
2019-04-10T23:43:41.961Z,14.83
2019-04-10T23:45:46.055Z,14.28
2019-04-10T23:47:52.630Z,13.65
2019-04-10T23:49:57.558Z,13.35
2019-04-10T23:52:01.718Z,14.58
2019-04-10T23:54:05.915Z,14.28
2019-04-10T23:56:10.143Z,13.68
2019-04-10T23:58:13.986Z,14.15
